Terminal Aerodrome Forecast
Issued by NWS

Home | Current Version | Previous Version | Text Only | Print | Product List | Glossary On
Versions: 1 2 3 4 5 6 7 8 9 10 11 12 13 14 15 16 17 18 19 20 21 22 23 24 25 26 27 28 29 30 31 32 33 34 35
000
FTUS43 KLOT 010500
TAFDPA
TAF
KDPA 010530Z 0106/0206 06007KT 3/4SM -SN BR OVC005
     FM010900 06012G18KT 1/2SM SN OVC004
     FM011400 05017G27KT 1/2SM SN OVC003
     FM011800 04020G32KT 1/2SM SN BLSN OVC004
      TEMPO 0118/0122 1/4SM SN BLSN
     FM020200 02020G30KT 1 1/2SM -SN BLSN OVC005=

USA.gov is the U.S. government's official web portal to all federal, state and local government web resources and services.